sensor_id;sensor_type;location;lat;lon;timestamp;P1;durP1;ratioP1;P2;durP2;ratioP2
68353;SDS011;55274;43.060;25.618;2022-07-22T00:02:15;5.32;;;2.90;;
68353;SDS011;55274;43.060;25.618;2022-07-22T00:04:41;4.53;;;3.15;;
68353;SDS011;55274;43.060;25.618;2022-07-22T00:07:06;7.20;;;2.85;;
68353;SDS011;55274;43.060;25.618;2022-07-22T00:09:32;5.93;;;2.60;;
68353;SDS011;55274;43.060;25.618;2022-07-22T00:11:58;4.68;;;2.72;;
68353;SDS011;55274;43.060;25.618;2022-07-22T00:14:24;8.68;;;2.80;;
68353;SDS011;55274;43.060;25.618;2022-07-22T00:16:50;4.70;;;2.75;;
68353;SDS011;55274;43.060;25.618;2022-07-22T00:19:16;4.97;;;2.78;;
68353;SDS011;55274;43.060;25.618;2022-07-22T00:21:42;6.20;;;3.00;;
68353;SDS011;55274;43.060;25.618;2022-07-22T00:24:08;8.10;;;3.13;;
68353;SDS011;55274;43.060;25.618;2022-07-22T00:26:34;8.32;;;3.47;;
68353;SDS011;55274;43.060;25.618;2022-07-22T00:29:00;7.22;;;3.17;;
68353;SDS011;55274;43.060;25.618;2022-07-22T00:31:26;5.15;;;2.80;;
68353;SDS011;55274;43.060;25.618;2022-07-22T00:33:52;7.25;;;3.00;;
68353;SDS011;55274;43.060;25.618;2022-07-22T00:36:17;6.13;;;3.05;;
68353;SDS011;55274;43.060;25.618;2022-07-22T00:38:43;5.50;;;3.15;;
68353;SDS011;55274;43.060;25.618;2022-07-22T00:41:09;5.72;;;3.03;;
68353;SDS011;55274;43.060;25.618;2022-07-22T00:46:22;6.80;;;3.67;;
68353;SDS011;55274;43.060;25.618;2022-07-22T00:48:49;10.70;;;3.50;;
68353;SDS011;55274;43.060;25.618;2022-07-22T00:51:15;6.07;;;3.10;;
68353;SDS011;55274;43.060;25.618;2022-07-22T00:53:43;13.82;;;3.13;;
68353;SDS011;55274;43.060;25.618;2022-07-22T00:56:10;7.18;;;3.30;;
68353;SDS011;55274;43.060;25.618;2022-07-22T00:58:36;12.40;;;4.00;;
68353;SDS011;55274;43.060;25.618;2022-07-22T01:01:02;19.75;;;4.80;;
68353;SDS011;55274;43.060;25.618;2022-07-22T01:03:28;7.97;;;3.60;;
68353;SDS011;55274;43.060;25.618;2022-07-22T01:05:54;9.98;;;3.95;;
68353;SDS011;55274;43.060;25.618;2022-07-22T01:08:20;9.52;;;3.05;;
68353;SDS011;55274;43.060;25.618;2022-07-22T01:10:46;8.30;;;3.22;;
68353;SDS011;55274;43.060;25.618;2022-07-22T01:13:12;5.47;;;2.83;;
68353;SDS011;55274;43.060;25.618;2022-07-22T01:15:37;7.40;;;2.80;;
68353;SDS011;55274;43.060;25.618;2022-07-22T01:18:03;5.45;;;3.13;;
68353;SDS011;55274;43.060;25.618;2022-07-22T01:20:29;6.85;;;3.10;;
68353;SDS011;55274;43.060;25.618;2022-07-22T01:22:56;7.28;;;3.00;;
68353;SDS011;55274;43.060;25.618;2022-07-22T01:25:22;26.63;;;4.70;;
68353;SDS011;55274;43.060;25.618;2022-07-22T01:27:48;4.53;;;3.10;;
68353;SDS011;55274;43.060;25.618;2022-07-22T01:30:14;6.15;;;3.05;;
68353;SDS011;55274;43.060;25.618;2022-07-22T01:32:40;6.75;;;2.70;;
68353;SDS011;55274;43.060;25.618;2022-07-22T01:35:05;8.63;;;3.08;;
68353;SDS011;55274;43.060;25.618;2022-07-22T01:37:35;14.63;;;3.42;;
68353;SDS011;55274;43.060;25.618;2022-07-22T01:40:01;8.70;;;3.03;;
68353;SDS011;55274;43.060;25.618;2022-07-22T01:42:28;7.32;;;3.17;;
68353;SDS011;55274;43.060;25.618;2022-07-22T01:44:53;10.43;;;3.35;;
68353;SDS011;55274;43.060;25.618;2022-07-22T01:47:19;7.35;;;3.25;;
68353;SDS011;55274;43.060;25.618;2022-07-22T01:49:45;28.40;;;4.60;;
68353;SDS011;55274;43.060;25.618;2022-07-22T01:52:11;10.30;;;3.55;;
68353;SDS011;55274;43.060;25.618;2022-07-22T01:54:36;7.65;;;3.28;;
68353;SDS011;55274;43.060;25.618;2022-07-22T01:57:02;12.27;;;3.30;;
68353;SDS011;55274;43.060;25.618;2022-07-22T01:59:28;26.85;;;4.45;;
68353;SDS011;55274;43.060;25.618;2022-07-22T02:01:54;4.60;;;3.10;;
68353;SDS011;55274;43.060;25.618;2022-07-22T02:04:20;6.53;;;3.85;;
68353;SDS011;55274;43.060;25.618;2022-07-22T02:06:46;6.85;;;4.35;;
68353;SDS011;55274;43.060;25.618;2022-07-22T02:09:12;9.55;;;3.72;;
68353;SDS011;55274;43.060;25.618;2022-07-22T02:11:38;5.38;;;3.10;;
68353;SDS011;55274;43.060;25.618;2022-07-22T02:14:04;10.20;;;5.38;;
68353;SDS011;55274;43.060;25.618;2022-07-22T02:16:30;5.63;;;3.17;;
68353;SDS011;55274;43.060;25.618;2022-07-22T02:18:56;8.45;;;3.85;;
68353;SDS011;55274;43.060;25.618;2022-07-22T02:21:22;6.70;;;4.00;;
68353;SDS011;55274;43.060;25.618;2022-07-22T02:23:48;9.15;;;3.33;;
68353;SDS011;55274;43.060;25.618;2022-07-22T02:26:13;6.57;;;3.78;;
68353;SDS011;55274;43.060;25.618;2022-07-22T02:28:39;7.82;;;3.30;;
68353;SDS011;55274;43.060;25.618;2022-07-22T02:31:05;10.13;;;4.05;;
68353;SDS011;55274;43.060;25.618;2022-07-22T02:33:31;25.60;;;4.65;;
68353;SDS011;55274;43.060;25.618;2022-07-22T02:35:57;7.40;;;3.72;;
68353;SDS011;55274;43.060;25.618;2022-07-22T02:38:23;7.53;;;3.50;;
68353;SDS011;55274;43.060;25.618;2022-07-22T02:40:48;13.30;;;3.33;;
68353;SDS011;55274;43.060;25.618;2022-07-22T02:43:14;13.80;;;3.70;;
68353;SDS011;55274;43.060;25.618;2022-07-22T02:45:40;10.52;;;3.45;;
68353;SDS011;55274;43.060;25.618;2022-07-22T02:48:06;13.73;;;4.10;;
68353;SDS011;55274;43.060;25.618;2022-07-22T02:50:31;14.15;;;4.18;;
68353;SDS011;55274;43.060;25.618;2022-07-22T02:52:58;59.53;;;9.75;;
68353;SDS011;55274;43.060;25.618;2022-07-22T02:55:24;41.85;;;7.95;;
68353;SDS011;55274;43.060;25.618;2022-07-22T02:57:49;112.95;;;13.70;;
68353;SDS011;55274;43.060;25.618;2022-07-22T03:00:16;13.82;;;4.43;;
68353;SDS011;55274;43.060;25.618;2022-07-22T03:02:42;10.82;;;4.25;;
68353;SDS011;55274;43.060;25.618;2022-07-22T03:05:08;8.63;;;3.55;;
68353;SDS011;55274;43.060;25.618;2022-07-22T03:07:35;32.33;;;6.15;;
68353;SDS011;55274;43.060;25.618;2022-07-22T03:10:01;83.88;;;8.98;;
68353;SDS011;55274;43.060;25.618;2022-07-22T03:12:27;20.95;;;5.47;;
68353;SDS011;55274;43.060;25.618;2022-07-22T03:14:53;13.63;;;4.38;;
68353;SDS011;55274;43.060;25.618;2022-07-22T03:17:19;17.67;;;4.75;;
68353;SDS011;55274;43.060;25.618;2022-07-22T03:19:45;31.58;;;5.30;;
68353;SDS011;55274;43.060;25.618;2022-07-22T03:22:11;85.85;;;9.57;;
68353;SDS011;55274;43.060;25.618;2022-07-22T03:24:36;20.55;;;4.22;;
68353;SDS011;55274;43.060;25.618;2022-07-22T03:27:02;7.95;;;3.78;;
68353;SDS011;55274;43.060;25.618;2022-07-22T03:29:28;46.47;;;6.57;;
68353;SDS011;55274;43.060;25.618;2022-07-22T03:31:54;10.95;;;4.00;;
68353;SDS011;55274;43.060;25.618;2022-07-22T03:34:19;24.25;;;5.70;;
68353;SDS011;55274;43.060;25.618;2022-07-22T03:36:45;22.63;;;5.53;;
68353;SDS011;55274;43.060;25.618;2022-07-22T03:39:11;13.43;;;5.05;;
68353;SDS011;55274;43.060;25.618;2022-07-22T03:41:37;11.60;;;4.78;;
68353;SDS011;55274;43.060;25.618;2022-07-22T03:44:03;13.57;;;4.93;;
68353;SDS011;55274;43.060;25.618;2022-07-22T03:46:29;13.88;;;4.57;;
68353;SDS011;55274;43.060;25.618;2022-07-22T03:48:54;18.75;;;5.20;;
68353;SDS011;55274;43.060;25.618;2022-07-22T03:51:20;10.32;;;4.05;;
68353;SDS011;55274;43.060;25.618;2022-07-22T03:53:46;15.07;;;5.65;;
68353;SDS011;55274;43.060;25.618;2022-07-22T03:56:11;11.30;;;5.57;;
68353;SDS011;55274;43.060;25.618;2022-07-22T03:58:37;11.07;;;5.10;;
68353;SDS011;55274;43.060;25.618;2022-07-22T04:01:03;26.17;;;6.28;;
68353;SDS011;55274;43.060;25.618;2022-07-22T04:03:29;24.83;;;5.90;;
68353;SDS011;55274;43.060;25.618;2022-07-22T04:05:54;35.38;;;6.38;;
68353;SDS011;55274;43.060;25.618;2022-07-22T04:08:20;20.63;;;5.03;;
68353;SDS011;55274;43.060;25.618;2022-07-22T04:10:46;28.83;;;6.28;;
68353;SDS011;55274;43.060;25.618;2022-07-22T04:13:12;13.77;;;5.22;;
68353;SDS011;55274;43.060;25.618;2022-07-22T04:15:38;9.73;;;4.22;;
68353;SDS011;55274;43.060;25.618;2022-07-22T04:18:03;13.98;;;5.00;;
68353;SDS011;55274;43.060;25.618;2022-07-22T04:20:29;47.20;;;7.00;;
68353;SDS011;55274;43.060;25.618;2022-07-22T04:22:55;17.60;;;7.28;;
68353;SDS011;55274;43.060;25.618;2022-07-22T04:25:21;16.38;;;5.32;;
68353;SDS011;55274;43.060;25.618;2022-07-22T04:27:46;25.73;;;6.50;;
68353;SDS011;55274;43.060;25.618;2022-07-22T04:30:12;21.23;;;6.65;;
68353;SDS011;55274;43.060;25.618;2022-07-22T04:32:38;43.10;;;8.68;;
68353;SDS011;55274;43.060;25.618;2022-07-22T04:35:04;38.22;;;7.40;;
68353;SDS011;55274;43.060;25.618;2022-07-22T04:37:30;16.58;;;6.00;;
68353;SDS011;55274;43.060;25.618;2022-07-22T04:39:56;18.48;;;6.18;;
68353;SDS011;55274;43.060;25.618;2022-07-22T04:42:22;16.95;;;6.57;;
68353;SDS011;55274;43.060;25.618;2022-07-22T04:44:47;17.08;;;6.18;;
68353;SDS011;55274;43.060;25.618;2022-07-22T04:47:13;56.45;;;14.38;;
68353;SDS011;55274;43.060;25.618;2022-07-22T04:49:39;37.97;;;8.85;;
68353;SDS011;55274;43.060;25.618;2022-07-22T04:52:05;23.77;;;8.27;;
68353;SDS011;55274;43.060;25.618;2022-07-22T04:54:31;24.38;;;6.90;;
68353;SDS011;55274;43.060;25.618;2022-07-22T04:56:56;12.82;;;5.20;;
68353;SDS011;55274;43.060;25.618;2022-07-22T04:59:22;11.70;;;5.22;;
68353;SDS011;55274;43.060;25.618;2022-07-22T05:01:48;25.77;;;6.13;;
68353;SDS011;55274;43.060;25.618;2022-07-22T05:04:14;14.07;;;5.90;;
68353;SDS011;55274;43.060;25.618;2022-07-22T05:06:39;10.77;;;4.70;;
68353;SDS011;55274;43.060;25.618;2022-07-22T05:09:06;12.20;;;5.13;;
68353;SDS011;55274;43.060;25.618;2022-07-22T05:11:34;14.88;;;5.53;;
68353;SDS011;55274;43.060;25.618;2022-07-22T05:14:00;12.95;;;7.10;;
68353;SDS011;55274;43.060;25.618;2022-07-22T05:16:26;54.03;;;14.65;;
68353;SDS011;55274;43.060;25.618;2022-07-22T05:18:52;31.10;;;15.18;;
68353;SDS011;55274;43.060;25.618;2022-07-22T05:21:18;32.60;;;15.93;;
68353;SDS011;55274;43.060;25.618;2022-07-22T05:23:43;31.80;;;16.25;;
68353;SDS011;55274;43.060;25.618;2022-07-22T05:26:09;29.45;;;13.50;;
68353;SDS011;55274;43.060;25.618;2022-07-22T05:28:35;27.60;;;16.25;;
68353;SDS011;55274;43.060;25.618;2022-07-22T05:31:01;19.20;;;11.68;;
68353;SDS011;55274;43.060;25.618;2022-07-22T05:33:27;37.63;;;15.77;;
68353;SDS011;55274;43.060;25.618;2022-07-22T05:35:53;35.90;;;22.05;;
68353;SDS011;55274;43.060;25.618;2022-07-22T05:38:18;35.15;;;20.35;;
68353;SDS011;55274;43.060;25.618;2022-07-22T05:40:44;33.85;;;20.75;;
68353;SDS011;55274;43.060;25.618;2022-07-22T05:43:10;35.30;;;21.58;;
68353;SDS011;55274;43.060;25.618;2022-07-22T05:45:36;44.10;;;30.73;;
68353;SDS011;55274;43.060;25.618;2022-07-22T05:48:02;50.70;;;34.28;;
68353;SDS011;55274;43.060;25.618;2022-07-22T05:50:28;45.55;;;29.63;;
68353;SDS011;55274;43.060;25.618;2022-07-22T05:52:55;47.85;;;30.15;;
68353;SDS011;55274;43.060;25.618;2022-07-22T05:55:22;39.20;;;26.88;;
68353;SDS011;55274;43.060;25.618;2022-07-22T05:57:48;37.50;;;23.35;;
68353;SDS011;55274;43.060;25.618;2022-07-22T06:00:14;39.17;;;21.10;;
68353;SDS011;55274;43.060;25.618;2022-07-22T06:02:42;26.88;;;17.00;;
68353;SDS011;55274;43.060;25.618;2022-07-22T06:05:08;19.67;;;11.10;;
68353;SDS011;55274;43.060;25.618;2022-07-22T06:07:34;18.50;;;5.18;;
68353;SDS011;55274;43.060;25.618;2022-07-22T06:10:00;17.50;;;8.10;;
68353;SDS011;55274;43.060;25.618;2022-07-22T06:12:26;8.10;;;4.45;;
68353;SDS011;55274;43.060;25.618;2022-07-22T06:14:52;19.35;;;8.30;;
68353;SDS011;55274;43.060;25.618;2022-07-22T06:17:17;18.45;;;4.25;;
68353;SDS011;55274;43.060;25.618;2022-07-22T06:19:43;8.48;;;3.90;;
68353;SDS011;55274;43.060;25.618;2022-07-22T06:22:09;7.65;;;3.35;;
68353;SDS011;55274;43.060;25.618;2022-07-22T06:24:35;7.85;;;3.78;;
68353;SDS011;55274;43.060;25.618;2022-07-22T06:27:01;10.70;;;6.00;;
68353;SDS011;55274;43.060;25.618;2022-07-22T06:29:27;6.63;;;4.15;;
68353;SDS011;55274;43.060;25.618;2022-07-22T06:31:53;10.30;;;4.25;;
68353;SDS011;55274;43.060;25.618;2022-07-22T06:34:20;10.93;;;3.78;;
68353;SDS011;55274;43.060;25.618;2022-07-22T06:36:46;7.05;;;3.85;;
68353;SDS011;55274;43.060;25.618;2022-07-22T06:39:11;6.55;;;3.92;;
68353;SDS011;55274;43.060;25.618;2022-07-22T06:41:37;6.03;;;3.67;;
68353;SDS011;55274;43.060;25.618;2022-07-22T06:44:03;20.35;;;6.53;;
68353;SDS011;55274;43.060;25.618;2022-07-22T06:46:29;14.00;;;4.78;;
68353;SDS011;55274;43.060;25.618;2022-07-22T06:48:55;9.90;;;4.45;;
68353;SDS011;55274;43.060;25.618;2022-07-22T06:51:21;14.43;;;5.65;;
68353;SDS011;55274;43.060;25.618;2022-07-22T06:53:47;8.70;;;4.53;;
68353;SDS011;55274;43.060;25.618;2022-07-22T06:56:13;11.48;;;5.10;;
68353;SDS011;55274;43.060;25.618;2022-07-22T06:58:38;25.38;;;5.53;;
68353;SDS011;55274;43.060;25.618;2022-07-22T07:01:04;22.48;;;6.18;;
68353;SDS011;55274;43.060;25.618;2022-07-22T07:03:30;12.30;;;5.22;;
68353;SDS011;55274;43.060;25.618;2022-07-22T07:05:56;10.00;;;4.47;;
68353;SDS011;55274;43.060;25.618;2022-07-22T07:08:22;12.40;;;5.07;;
68353;SDS011;55274;43.060;25.618;2022-07-22T07:10:47;11.27;;;5.20;;
68353;SDS011;55274;43.060;25.618;2022-07-22T07:13:13;10.15;;;4.70;;
68353;SDS011;55274;43.060;25.618;2022-07-22T07:15:39;10.65;;;5.03;;
68353;SDS011;55274;43.060;25.618;2022-07-22T07:18:05;14.23;;;5.75;;
68353;SDS011;55274;43.060;25.618;2022-07-22T07:20:31;11.27;;;4.95;;
68353;SDS011;55274;43.060;25.618;2022-07-22T07:22:59;8.90;;;4.65;;
68353;SDS011;55274;43.060;25.618;2022-07-22T07:25:26;8.48;;;4.38;;
68353;SDS011;55274;43.060;25.618;2022-07-22T07:27:52;9.75;;;3.58;;
68353;SDS011;55274;43.060;25.618;2022-07-22T07:30:18;10.18;;;4.57;;
68353;SDS011;55274;43.060;25.618;2022-07-22T07:32:44;8.35;;;3.88;;
68353;SDS011;55274;43.060;25.618;2022-07-22T07:35:10;6.70;;;4.10;;
68353;SDS011;55274;43.060;25.618;2022-07-22T07:37:36;8.73;;;3.78;;
68353;SDS011;55274;43.060;25.618;2022-07-22T07:40:03;10.77;;;3.97;;
68353;SDS011;55274;43.060;25.618;2022-07-22T07:42:29;6.50;;;3.60;;
68353;SDS011;55274;43.060;25.618;2022-07-22T07:44:55;9.85;;;4.50;;
68353;SDS011;55274;43.060;25.618;2022-07-22T07:47:21;16.60;;;5.28;;
68353;SDS011;55274;43.060;25.618;2022-07-22T07:49:48;20.35;;;5.18;;
68353;SDS011;55274;43.060;25.618;2022-07-22T07:52:15;9.18;;;4.40;;
68353;SDS011;55274;43.060;25.618;2022-07-22T07:54:41;10.38;;;4.47;;
68353;SDS011;55274;43.060;25.618;2022-07-22T07:57:10;7.50;;;4.13;;
68353;SDS011;55274;43.060;25.618;2022-07-22T07:59:37;10.68;;;4.68;;
68353;SDS011;55274;43.060;25.618;2022-07-22T08:02:04;13.50;;;4.53;;
68353;SDS011;55274;43.060;25.618;2022-07-22T08:04:32;6.45;;;4.57;;
68353;SDS011;55274;43.060;25.618;2022-07-22T08:06:59;9.02;;;4.00;;
68353;SDS011;55274;43.060;25.618;2022-07-22T08:09:25;7.38;;;4.38;;
68353;SDS011;55274;43.060;25.618;2022-07-22T08:11:52;5.97;;;4.22;;
68353;SDS011;55274;43.060;25.618;2022-07-22T08:14:18;10.15;;;4.28;;
68353;SDS011;55274;43.060;25.618;2022-07-22T08:16:44;10.45;;;4.05;;
68353;SDS011;55274;43.060;25.618;2022-07-22T08:19:10;7.72;;;4.40;;
68353;SDS011;55274;43.060;25.618;2022-07-22T08:21:35;10.20;;;3.92;;
68353;SDS011;55274;43.060;25.618;2022-07-22T08:24:02;15.82;;;5.00;;
68353;SDS011;55274;43.060;25.618;2022-07-22T08:26:30;14.95;;;4.05;;
68353;SDS011;55274;43.060;25.618;2022-07-22T08:28:57;11.23;;;4.05;;
68353;SDS011;55274;43.060;25.618;2022-07-22T08:31:23;104.78;;;12.07;;
68353;SDS011;55274;43.060;25.618;2022-07-22T08:33:49;14.70;;;5.05;;
68353;SDS011;55274;43.060;25.618;2022-07-22T08:36:15;12.65;;;4.10;;
68353;SDS011;55274;43.060;25.618;2022-07-22T08:38:40;12.75;;;3.80;;
68353;SDS011;55274;43.060;25.618;2022-07-22T08:41:06;24.38;;;4.93;;
68353;SDS011;55274;43.060;25.618;2022-07-22T08:43:34;27.00;;;4.78;;
68353;SDS011;55274;43.060;25.618;2022-07-22T08:46:04;18.52;;;4.18;;
68353;SDS011;55274;43.060;25.618;2022-07-22T08:48:30;8.05;;;3.55;;
68353;SDS011;55274;43.060;25.618;2022-07-22T08:50:56;8.30;;;3.70;;
68353;SDS011;55274;43.060;25.618;2022-07-22T08:53:22;7.72;;;3.30;;
68353;SDS011;55274;43.060;25.618;2022-07-22T08:55:48;10.00;;;3.40;;
68353;SDS011;55274;43.060;25.618;2022-07-22T08:58:14;11.52;;;3.20;;
68353;SDS011;55274;43.060;25.618;2022-07-22T09:00:43;14.77;;;3.58;;
68353;SDS011;55274;43.060;25.618;2022-07-22T09:03:19;9.98;;;3.08;;
68353;SDS011;55274;43.060;25.618;2022-07-22T09:05:47;20.58;;;3.38;;
68353;SDS011;55274;43.060;25.618;2022-07-22T09:08:15;19.17;;;3.67;;
68353;SDS011;55274;43.060;25.618;2022-07-22T09:10:41;13.02;;;3.30;;
68353;SDS011;55274;43.060;25.618;2022-07-22T09:13:09;18.50;;;3.78;;
68353;SDS011;55274;43.060;25.618;2022-07-22T09:15:36;8.40;;;2.88;;
68353;SDS011;55274;43.060;25.618;2022-07-22T09:18:06;20.27;;;3.92;;
68353;SDS011;55274;43.060;25.618;2022-07-22T09:20:34;9.50;;;3.25;;
68353;SDS011;55274;43.060;25.618;2022-07-22T09:23:01;9.48;;;3.38;;
68353;SDS011;55274;43.060;25.618;2022-07-22T09:25:34;26.42;;;3.65;;
68353;SDS011;55274;43.060;25.618;2022-07-22T09:30:40;3.42;;;2.70;;
68353;SDS011;55274;43.060;25.618;2022-07-22T09:33:12;6.28;;;2.78;;
68353;SDS011;55274;43.060;25.618;2022-07-22T09:35:38;44.90;;;4.97;;
68353;SDS011;55274;43.060;25.618;2022-07-22T09:38:06;15.43;;;3.13;;
68353;SDS011;55274;43.060;25.618;2022-07-22T09:40:37;7.25;;;2.67;;
68353;SDS011;55274;43.060;25.618;2022-07-22T09:43:12;4.57;;;2.75;;
68353;SDS011;55274;43.060;25.618;2022-07-22T09:45:44;5.68;;;2.60;;
68353;SDS011;55274;43.060;25.618;2022-07-22T09:48:15;16.58;;;4.00;;
68353;SDS011;55274;43.060;25.618;2022-07-22T09:50:43;9.93;;;3.25;;
68353;SDS011;55274;43.060;25.618;2022-07-22T09:53:09;15.15;;;3.50;;
68353;SDS011;55274;43.060;25.618;2022-07-22T09:55:35;7.55;;;3.85;;
68353;SDS011;55274;43.060;25.618;2022-07-22T09:58:04;23.90;;;4.03;;
68353;SDS011;55274;43.060;25.618;2022-07-22T10:00:33;6.50;;;2.55;;
68353;SDS011;55274;43.060;25.618;2022-07-22T10:03:02;9.45;;;2.75;;
68353;SDS011;55274;43.060;25.618;2022-07-22T10:05:31;32.10;;;3.63;;
68353;SDS011;55274;43.060;25.618;2022-07-22T10:08:00;8.43;;;2.63;;
68353;SDS011;55274;43.060;25.618;2022-07-22T10:10:28;17.35;;;4.55;;
68353;SDS011;55274;43.060;25.618;2022-07-22T10:12:55;21.27;;;3.30;;
68353;SDS011;55274;43.060;25.618;2022-07-22T10:15:23;11.43;;;2.05;;
68353;SDS011;55274;43.060;25.618;2022-07-22T10:17:54;9.10;;;2.40;;
68353;SDS011;55274;43.060;25.618;2022-07-22T10:20:23;18.63;;;3.58;;
68353;SDS011;55274;43.060;25.618;2022-07-22T10:23:00;12.45;;;2.88;;
68353;SDS011;55274;43.060;25.618;2022-07-22T10:25:28;11.65;;;2.40;;
68353;SDS011;55274;43.060;25.618;2022-07-22T10:27:57;8.30;;;2.40;;
68353;SDS011;55274;43.060;25.618;2022-07-22T10:33:21;25.40;;;3.58;;
68353;SDS011;55274;43.060;25.618;2022-07-22T10:38:21;8.73;;;2.38;;
68353;SDS011;55274;43.060;25.618;2022-07-22T10:40:49;23.35;;;4.43;;
68353;SDS011;55274;43.060;25.618;2022-07-22T10:43:20;4.93;;;2.50;;
68353;SDS011;55274;43.060;25.618;2022-07-22T10:45:49;4.53;;;2.30;;
68353;SDS011;55274;43.060;25.618;2022-07-22T10:48:21;7.93;;;2.25;;
68353;SDS011;55274;43.060;25.618;2022-07-22T10:50:52;8.63;;;2.85;;
68353;SDS011;55274;43.060;25.618;2022-07-22T10:53:23;6.60;;;2.50;;
68353;SDS011;55274;43.060;25.618;2022-07-22T10:56:12;6.90;;;2.42;;
68353;SDS011;55274;43.060;25.618;2022-07-22T10:58:40;7.32;;;2.65;;
68353;SDS011;55274;43.060;25.618;2022-07-22T11:01:14;12.20;;;2.65;;
68353;SDS011;55274;43.060;25.618;2022-07-22T11:03:42;5.20;;;2.15;;
68353;SDS011;55274;43.060;25.618;2022-07-22T11:09:00;10.15;;;2.30;;
68353;SDS011;55274;43.060;25.618;2022-07-22T11:11:41;5.63;;;2.72;;
68353;SDS011;55274;43.060;25.618;2022-07-22T11:14:19;4.15;;;2.15;;
68353;SDS011;55274;43.060;25.618;2022-07-22T11:16:59;4.65;;;2.05;;
68353;SDS011;55274;43.060;25.618;2022-07-22T11:19:30;6.55;;;2.17;;
68353;SDS011;55274;43.060;25.618;2022-07-22T11:22:03;3.28;;;2.03;;
68353;SDS011;55274;43.060;25.618;2022-07-22T11:24:34;10.80;;;2.20;;
68353;SDS011;55274;43.060;25.618;2022-07-22T11:27:01;9.63;;;1.90;;
68353;SDS011;55274;43.060;25.618;2022-07-22T11:32:01;5.63;;;2.28;;
68353;SDS011;55274;43.060;25.618;2022-07-22T11:34:29;6.03;;;1.90;;
68353;SDS011;55274;43.060;25.618;2022-07-22T11:36:55;11.00;;;1.95;;
68353;SDS011;55274;43.060;25.618;2022-07-22T11:39:25;11.95;;;2.45;;
68353;SDS011;55274;43.060;25.618;2022-07-22T11:41:53;4.75;;;2.00;;
68353;SDS011;55274;43.060;25.618;2022-07-22T11:44:21;5.82;;;1.67;;
68353;SDS011;55274;43.060;25.618;2022-07-22T11:46:49;9.82;;;2.13;;
68353;SDS011;55274;43.060;25.618;2022-07-22T11:49:18;6.25;;;2.20;;
68353;SDS011;55274;43.060;25.618;2022-07-22T11:51:45;7.20;;;2.30;;
68353;SDS011;55274;43.060;25.618;2022-07-22T11:54:12;3.17;;;1.90;;
68353;SDS011;55274;43.060;25.618;2022-07-22T11:56:38;2.25;;;1.60;;
68353;SDS011;55274;43.060;25.618;2022-07-22T11:59:05;9.70;;;1.88;;
68353;SDS011;55274;43.060;25.618;2022-07-22T12:01:34;6.55;;;2.03;;
68353;SDS011;55274;43.060;25.618;2022-07-22T12:04:02;9.60;;;2.20;;
68353;SDS011;55274;43.060;25.618;2022-07-22T12:06:33;5.30;;;2.25;;
68353;SDS011;55274;43.060;25.618;2022-07-22T12:09:11;12.15;;;2.13;;
68353;SDS011;55274;43.060;25.618;2022-07-22T12:11:39;8.38;;;1.80;;
68353;SDS011;55274;43.060;25.618;2022-07-22T12:14:09;5.68;;;1.75;;
68353;SDS011;55274;43.060;25.618;2022-07-22T12:16:36;2.63;;;1.58;;
68353;SDS011;55274;43.060;25.618;2022-07-22T12:19:07;6.38;;;2.13;;
68353;SDS011;55274;43.060;25.618;2022-07-22T12:21:35;3.10;;;1.80;;
68353;SDS011;55274;43.060;25.618;2022-07-22T12:24:14;6.50;;;2.00;;
68353;SDS011;55274;43.060;25.618;2022-07-22T12:26:40;4.63;;;2.20;;
68353;SDS011;55274;43.060;25.618;2022-07-22T12:29:15;10.85;;;2.20;;
68353;SDS011;55274;43.060;25.618;2022-07-22T12:31:41;5.10;;;1.80;;
68353;SDS011;55274;43.060;25.618;2022-07-22T12:34:11;8.93;;;1.85;;
68353;SDS011;55274;43.060;25.618;2022-07-22T12:36:38;4.97;;;1.73;;
68353;SDS011;55274;43.060;25.618;2022-07-22T12:39:14;38.80;;;3.75;;
68353;SDS011;55274;43.060;25.618;2022-07-22T12:41:45;3.83;;;1.50;;
68353;SDS011;55274;43.060;25.618;2022-07-22T12:44:24;4.55;;;1.55;;
68353;SDS011;55274;43.060;25.618;2022-07-22T12:46:52;7.70;;;1.70;;
68353;SDS011;55274;43.060;25.618;2022-07-22T12:49:21;3.15;;;1.48;;
68353;SDS011;55274;43.060;25.618;2022-07-22T12:52:08;3.85;;;1.58;;
68353;SDS011;55274;43.060;25.618;2022-07-22T12:54:38;4.53;;;1.73;;
68353;SDS011;55274;43.060;25.618;2022-07-22T12:57:06;2.95;;;1.42;;
68353;SDS011;55274;43.060;25.618;2022-07-22T12:59:33;4.88;;;2.00;;
68353;SDS011;55274;43.060;25.618;2022-07-22T13:02:01;32.92;;;3.30;;
68353;SDS011;55274;43.060;25.618;2022-07-22T13:04:27;8.40;;;1.88;;
68353;SDS011;55274;43.060;25.618;2022-07-22T13:06:53;11.07;;;2.20;;
68353;SDS011;55274;43.060;25.618;2022-07-22T13:09:19;8.77;;;1.95;;
68353;SDS011;55274;43.060;25.618;2022-07-22T13:11:45;6.18;;;1.70;;
68353;SDS011;55274;43.060;25.618;2022-07-22T13:14:11;5.50;;;1.77;;
68353;SDS011;55274;43.060;25.618;2022-07-22T13:16:38;3.65;;;1.50;;
68353;SDS011;55274;43.060;25.618;2022-07-22T13:19:05;14.65;;;2.42;;
68353;SDS011;55274;43.060;25.618;2022-07-22T13:21:31;7.07;;;1.70;;
68353;SDS011;55274;43.060;25.618;2022-07-22T13:23:57;7.18;;;1.67;;
68353;SDS011;55274;43.060;25.618;2022-07-22T13:26:22;9.80;;;1.90;;
68353;SDS011;55274;43.060;25.618;2022-07-22T13:28:50;3.15;;;1.25;;
68353;SDS011;55274;43.060;25.618;2022-07-22T13:31:15;14.80;;;2.03;;
68353;SDS011;55274;43.060;25.618;2022-07-22T13:33:41;25.23;;;3.75;;
68353;SDS011;55274;43.060;25.618;2022-07-22T13:36:07;5.20;;;1.70;;
68353;SDS011;55274;43.060;25.618;2022-07-22T13:38:33;8.32;;;1.80;;
68353;SDS011;55274;43.060;25.618;2022-07-22T13:40:59;7.85;;;1.80;;
68353;SDS011;55274;43.060;25.618;2022-07-22T13:43:25;4.03;;;1.40;;
68353;SDS011;55274;43.060;25.618;2022-07-22T13:45:51;27.67;;;2.90;;
68353;SDS011;55274;43.060;25.618;2022-07-22T13:48:17;18.90;;;2.13;;
68353;SDS011;55274;43.060;25.618;2022-07-22T13:50:45;15.07;;;2.30;;
68353;SDS011;55274;43.060;25.618;2022-07-22T13:53:11;4.60;;;1.30;;
68353;SDS011;55274;43.060;25.618;2022-07-22T13:55:37;14.43;;;1.75;;
68353;SDS011;55274;43.060;25.618;2022-07-22T13:58:04;13.35;;;2.35;;
68353;SDS011;55274;43.060;25.618;2022-07-22T14:00:30;21.10;;;2.30;;
68353;SDS011;55274;43.060;25.618;2022-07-22T14:02:57;5.35;;;1.67;;
68353;SDS011;55274;43.060;25.618;2022-07-22T14:05:22;11.60;;;1.60;;
68353;SDS011;55274;43.060;25.618;2022-07-22T14:07:48;10.95;;;1.85;;
68353;SDS011;55274;43.060;25.618;2022-07-22T14:10:14;10.55;;;1.77;;
68353;SDS011;55274;43.060;25.618;2022-07-22T14:12:41;10.88;;;1.48;;
68353;SDS011;55274;43.060;25.618;2022-07-22T14:15:07;7.70;;;1.55;;
68353;SDS011;55274;43.060;25.618;2022-07-22T14:17:34;5.25;;;1.30;;
68353;SDS011;55274;43.060;25.618;2022-07-22T14:20:00;5.38;;;1.35;;
68353;SDS011;55274;43.060;25.618;2022-07-22T14:22:26;53.90;;;4.47;;
68353;SDS011;55274;43.060;25.618;2022-07-22T14:24:52;19.38;;;2.90;;
68353;SDS011;55274;43.060;25.618;2022-07-22T14:27:17;5.18;;;1.40;;
68353;SDS011;55274;43.060;25.618;2022-07-22T14:29:43;2.83;;;1.33;;
68353;SDS011;55274;43.060;25.618;2022-07-22T14:32:09;5.75;;;1.33;;
68353;SDS011;55274;43.060;25.618;2022-07-22T14:34:35;5.15;;;1.33;;
68353;SDS011;55274;43.060;25.618;2022-07-22T14:37:00;6.32;;;1.80;;
68353;SDS011;55274;43.060;25.618;2022-07-22T14:39:26;4.03;;;1.23;;
68353;SDS011;55274;43.060;25.618;2022-07-22T14:41:52;7.57;;;1.70;;